createdAt,value
2022-12-31T00:00:01.100Z,27.67
2022-12-31T00:02:34.659Z,29.52
2022-12-31T00:05:09.377Z,29.35
2022-12-31T00:10:16.806Z,27.83
2022-12-31T00:12:50.265Z,27.15
2022-12-31T00:15:23.953Z,25.23
2022-12-31T00:17:57.453Z,23.83
2022-12-31T00:20:31.308Z,18.35
2022-12-31T00:23:04.989Z,17.90
2022-12-31T00:25:40.163Z,16.63
2022-12-31T00:28:13.618Z,14.68
2022-12-31T00:30:47.097Z,13.10
2022-12-31T00:33:20.709Z,11.38
2022-12-31T00:35:54.145Z,7.70
2022-12-31T00:38:27.764Z,6.72
2022-12-31T00:41:02.643Z,8.45
2022-12-31T00:43:37.045Z,8.90
2022-12-31T00:46:11.709Z,9.85
2022-12-31T00:48:45.287Z,10.32
2022-12-31T00:51:21.050Z,8.75
2022-12-31T00:53:54.519Z,13.43
2022-12-31T00:56:31.391Z,12.80
2022-12-31T00:59:04.935Z,13.05
2022-12-31T01:01:40.495Z,11.77
2022-12-31T01:04:15.760Z,10.32
2022-12-31T01:06:49.654Z,10.90
2022-12-31T01:09:23.460Z,9.85
2022-12-31T01:11:58.346Z,9.70
2022-12-31T01:14:32.958Z,8.93
2022-12-31T01:17:06.417Z,7.28
2022-12-31T01:19:40.345Z,11.18
2022-12-31T01:22:13.879Z,15.65
2022-12-31T01:24:47.534Z,17.00
2022-12-31T01:27:22.381Z,17.90
2022-12-31T01:29:56.007Z,18.45
2022-12-31T01:32:29.466Z,16.85
2022-12-31T01:35:03.253Z,17.25
2022-12-31T01:37:36.705Z,16.60
2022-12-31T01:40:11.086Z,17.95
2022-12-31T01:42:45.929Z,18.23
2022-12-31T01:45:19.583Z,22.48
2022-12-31T01:47:58.217Z,25.63
2022-12-31T01:50:34.180Z,30.55
2022-12-31T01:53:11.573Z,35.47
2022-12-31T01:55:49.587Z,28.25
2022-12-31T01:58:29.327Z,24.52
2022-12-31T02:01:03.392Z,26.23
2022-12-31T02:03:37.662Z,29.00
2022-12-31T02:06:17.609Z,26.77
2022-12-31T02:08:51.822Z,24.38
2022-12-31T02:11:29.657Z,24.70
2022-12-31T02:14:07.885Z,23.00
2022-12-31T02:16:49.945Z,23.20
2022-12-31T02:20:03.305Z,22.60
2022-12-31T02:23:07.035Z,24.60
2022-12-31T02:26:17.565Z,23.05
2022-12-31T02:29:21.944Z,26.58
2022-12-31T02:32:01.512Z,23.52
2022-12-31T02:34:41.115Z,24.63
2022-12-31T02:37:17.075Z,25.20
2022-12-31T02:39:51.127Z,23.73
2022-12-31T02:42:24.910Z,20.20
2022-12-31T02:44:58.350Z,22.17
2022-12-31T02:47:48.134Z,20.17
2022-12-31T02:50:38.747Z,20.27
2022-12-31T02:53:23.873Z,18.88
2022-12-31T02:56:04.995Z,16.83
2022-12-31T02:59:01.154Z,14.80
2022-12-31T03:01:55.517Z,14.15
2022-12-31T03:04:36.476Z,15.80
2022-12-31T03:07:12.504Z,13.98
2022-12-31T03:09:46.158Z,17.77
2022-12-31T03:12:40.133Z,13.07
2022-12-31T03:15:21.906Z,14.43
2022-12-31T03:18:01.233Z,14.45
2022-12-31T03:20:56.792Z,14.48
2022-12-31T03:23:33.824Z,13.27
2022-12-31T03:26:09.879Z,11.82
2022-12-31T03:28:47.879Z,11.43
2022-12-31T03:31:21.562Z,11.82
2022-12-31T03:33:55.297Z,11.70
2022-12-31T03:36:30.319Z,11.52
2022-12-31T03:39:04.165Z,10.57
2022-12-31T03:41:37.652Z,11.88
2022-12-31T03:44:11.517Z,11.52
2022-12-31T03:46:45.010Z,12.38
2022-12-31T03:49:18.887Z,13.10
2022-12-31T03:51:53.761Z,12.30
2022-12-31T03:54:27.401Z,11.98
2022-12-31T03:57:01.859Z,11.80
2022-12-31T03:59:35.686Z,11.45
2022-12-31T04:02:09.398Z,9.48
2022-12-31T04:04:43.111Z,12.23
2022-12-31T04:07:18.096Z,13.23
2022-12-31T04:09:51.760Z,21.23
2022-12-31T04:12:25.266Z,17.83
2022-12-31T04:14:58.939Z,19.08
2022-12-31T04:17:32.727Z,21.55
2022-12-31T04:20:07.433Z,19.50
2022-12-31T04:22:42.418Z,20.20
2022-12-31T04:25:18.013Z,20.92
2022-12-31T04:27:51.452Z,17.20
2022-12-31T04:30:25.235Z,11.75
2022-12-31T04:32:58.906Z,8.57
2022-12-31T04:35:32.374Z,6.22
2022-12-31T04:38:07.459Z,5.75
2022-12-31T04:41:00.986Z,6.18
2022-12-31T04:43:34.799Z,5.60
2022-12-31T04:46:08.554Z,5.43
2022-12-31T04:48:42.589Z,4.95
2022-12-31T04:51:16.467Z,5.70
2022-12-31T04:53:51.905Z,4.20
2022-12-31T04:56:25.845Z,4.78
2022-12-31T04:58:59.718Z,4.20
2022-12-31T05:01:33.847Z,3.80
2022-12-31T05:04:07.373Z,3.65
2022-12-31T05:06:41.141Z,3.17
2022-12-31T05:09:16.004Z,3.08
2022-12-31T05:11:49.656Z,3.53
2022-12-31T05:14:23.335Z,3.47
2022-12-31T05:16:58.632Z,3.85
2022-12-31T05:19:32.159Z,3.42
2022-12-31T05:22:23.569Z,4.00
2022-12-31T05:24:59.300Z,3.50
2022-12-31T05:27:33.036Z,3.10
2022-12-31T05:30:07.764Z,3.72
2022-12-31T05:32:41.905Z,3.30
2022-12-31T05:35:15.658Z,4.07
2022-12-31T05:37:49.119Z,4.78
2022-12-31T05:40:24.184Z,3.67
2022-12-31T05:42:57.711Z,3.17
2022-12-31T05:45:31.601Z,2.95
2022-12-31T05:48:05.441Z,3.55
2022-12-31T05:50:38.914Z,3.70
2022-12-31T05:53:14.564Z,3.28
2022-12-31T05:55:49.879Z,3.75
2022-12-31T05:58:23.350Z,3.45
2022-12-31T06:00:57.043Z,3.35
2022-12-31T06:03:30.618Z,3.28
2022-12-31T06:06:04.134Z,3.67
2022-12-31T06:08:37.790Z,3.00
2022-12-31T06:11:12.844Z,3.40
2022-12-31T06:13:46.337Z,3.03
2022-12-31T06:16:20.074Z,3.42
2022-12-31T06:18:53.698Z,4.30
2022-12-31T06:21:27.471Z,3.92
2022-12-31T06:24:01.226Z,3.40
2022-12-31T06:26:36.404Z,3.80
2022-12-31T06:29:10.446Z,2.67
2022-12-31T06:31:44.460Z,3.33
2022-12-31T06:34:18.008Z,4.13
2022-12-31T06:36:51.666Z,3.33
2022-12-31T06:39:25.403Z,2.90
2022-12-31T06:42:00.296Z,3.17
2022-12-31T06:44:33.826Z,3.10
2022-12-31T06:47:07.471Z,2.88
2022-12-31T06:49:41.181Z,3.90
2022-12-31T06:52:14.958Z,3.63
2022-12-31T06:54:49.182Z,3.10
2022-12-31T06:57:24.679Z,3.30
2022-12-31T06:59:58.727Z,3.70
2022-12-31T07:02:51.301Z,4.05
2022-12-31T07:05:43.098Z,3.35
2022-12-31T07:08:27.702Z,4.15
2022-12-31T07:11:06.443Z,4.63
2022-12-31T07:14:00.466Z,4.68
2022-12-31T07:16:45.469Z,5.07
2022-12-31T07:19:28.668Z,3.45
2022-12-31T07:22:03.811Z,3.30
2022-12-31T07:24:37.905Z,3.60
2022-12-31T07:27:30.909Z,3.75
2022-12-31T07:30:11.263Z,3.58
2022-12-31T07:33:33.316Z,5.07
2022-12-31T07:36:21.499Z,4.53
2022-12-31T07:39:01.535Z,4.65
2022-12-31T07:41:52.064Z,4.70
2022-12-31T07:44:42.229Z,4.80
2022-12-31T07:47:23.123Z,4.07
2022-12-31T07:49:57.445Z,4.20
2022-12-31T07:52:31.467Z,5.47
2022-12-31T07:55:05.757Z,5.50
2022-12-31T07:57:47.020Z,5.65
2022-12-31T08:00:21.360Z,5.18
2022-12-31T08:03:15.278Z,5.53
2022-12-31T08:05:53.575Z,9.75
2022-12-31T08:08:37.436Z,11.55
2022-12-31T08:11:18.001Z,8.00
2022-12-31T08:13:53.983Z,4.80
2022-12-31T08:16:28.123Z,4.40
2022-12-31T08:19:03.991Z,3.72
2022-12-31T08:21:55.677Z,4.00
2022-12-31T08:24:38.030Z,3.90
2022-12-31T08:27:20.204Z,3.67
2022-12-31T08:30:03.583Z,3.85
2022-12-31T08:32:44.240Z,4.25
2022-12-31T08:35:34.968Z,3.47
2022-12-31T08:38:18.613Z,3.92
2022-12-31T08:40:59.920Z,3.80
2022-12-31T08:43:45.765Z,3.55
2022-12-31T08:46:27.262Z,3.17
2022-12-31T08:49:01.360Z,2.80
2022-12-31T08:51:37.047Z,3.58
2022-12-31T08:54:12.396Z,2.92
2022-12-31T08:56:52.747Z,4.03
2022-12-31T08:59:35.166Z,3.22
2022-12-31T09:02:35.785Z,3.00
2022-12-31T09:05:19.769Z,3.10
2022-12-31T09:08:04.952Z,3.40
2022-12-31T09:10:47.416Z,3.60
2022-12-31T09:13:30.640Z,3.67
2022-12-31T09:16:14.058Z,3.17
2022-12-31T09:18:47.941Z,3.17
2022-12-31T09:21:21.865Z,3.13
2022-12-31T09:23:57.359Z,3.13
2022-12-31T09:26:40.451Z,3.03
2022-12-31T09:29:24.591Z,3.15
2022-12-31T09:32:03.575Z,2.78
2022-12-31T09:34:44.222Z,3.00
2022-12-31T09:37:23.005Z,2.83
2022-12-31T09:40:01.622Z,3.20
2022-12-31T09:42:58.985Z,3.33
2022-12-31T09:45:56.346Z,2.70
2022-12-31T09:48:57.217Z,2.85
2022-12-31T09:51:32.300Z,2.97
2022-12-31T09:54:35.055Z,2.47
2022-12-31T09:57:32.680Z,2.58
2022-12-31T10:00:13.502Z,1.98
2022-12-31T10:03:06.447Z,2.42
2022-12-31T10:08:31.075Z,3.33
2022-12-31T10:11:13.058Z,2.60
2022-12-31T10:14:00.564Z,3.30
2022-12-31T10:17:01.278Z,3.67
2022-12-31T10:20:05.770Z,3.08
2022-12-31T10:23:04.993Z,3.30
2022-12-31T10:25:54.682Z,2.85
2022-12-31T10:28:38.735Z,2.70
2022-12-31T10:31:30.209Z,2.38
2022-12-31T10:34:15.759Z,3.05
2022-12-31T10:36:56.131Z,6.25
2022-12-31T10:39:51.373Z,3.20
2022-12-31T10:42:56.978Z,3.03
2022-12-31T10:46:20.880Z,3.05
2022-12-31T10:49:24.939Z,2.80
2022-12-31T10:52:42.095Z,2.97
2022-12-31T10:55:57.702Z,2.50
2022-12-31T10:59:08.695Z,2.53
2022-12-31T11:01:50.281Z,3.03
2022-12-31T11:05:07.539Z,3.63
2022-12-31T11:07:57.506Z,3.03
2022-12-31T11:11:02.095Z,2.97
2022-12-31T11:14:13.086Z,2.90
2022-12-31T11:17:11.467Z,3.42
2022-12-31T11:19:58.793Z,2.78
2022-12-31T11:22:52.100Z,2.47
2022-12-31T11:25:41.212Z,2.78
2022-12-31T11:28:42.405Z,2.28
2022-12-31T11:31:51.195Z,2.70
2022-12-31T11:34:49.174Z,3.17
2022-12-31T11:37:33.767Z,3.17
2022-12-31T11:40:33.464Z,6.20
2022-12-31T11:43:20.951Z,3.05
2022-12-31T11:46:48.638Z,2.90
2022-12-31T11:49:43.994Z,2.53
2022-12-31T11:52:40.931Z,3.13
2022-12-31T11:55:36.173Z,2.75
2022-12-31T11:58:15.441Z,3.75
2022-12-31T12:00:56.186Z,4.25
2022-12-31T12:03:30.432Z,5.05
2022-12-31T12:06:04.797Z,9.18
2022-12-31T12:08:39.100Z,7.85
2022-12-31T12:11:21.791Z,6.93
2022-12-31T12:16:29.825Z,6.97
2022-12-31T12:19:05.677Z,6.20
2022-12-31T12:21:47.564Z,9.07
2022-12-31T12:24:23.171Z,6.77
2022-12-31T12:26:58.779Z,8.52
2022-12-31T12:29:35.294Z,6.35
2022-12-31T12:32:16.925Z,6.75
2022-12-31T12:34:50.499Z,6.20
2022-12-31T12:37:30.227Z,7.05
2022-12-31T12:40:06.579Z,6.00
2022-12-31T12:42:49.675Z,7.47
2022-12-31T12:45:25.140Z,5.72
2022-12-31T12:48:02.284Z,4.43
2022-12-31T12:50:40.534Z,4.07
2022-12-31T12:53:29.102Z,3.30
2022-12-31T12:56:13.557Z,3.65
2022-12-31T12:59:01.763Z,3.78
2022-12-31T13:01:40.683Z,3.80
2022-12-31T13:04:37.201Z,4.47
2022-12-31T13:07:22.792Z,4.43
2022-12-31T13:10:16.861Z,4.43
2022-12-31T13:18:44.402Z,4.55
2022-12-31T13:21:32.840Z,3.40
2022-12-31T13:24:18.852Z,4.75
2022-12-31T13:26:58.095Z,4.22
2022-12-31T13:29:34.407Z,3.67
2022-12-31T13:32:13.810Z,3.50
2022-12-31T13:34:50.674Z,4.43
2022-12-31T13:37:29.532Z,4.65
2022-12-31T13:40:07.877Z,4.65
2022-12-31T13:42:48.409Z,5.18
2022-12-31T13:45:28.156Z,4.65
2022-12-31T13:48:08.270Z,4.45
2022-12-31T13:50:51.168Z,3.83
2022-12-31T13:53:28.157Z,4.53
2022-12-31T13:56:08.315Z,7.28
2022-12-31T13:58:47.034Z,6.45
2022-12-31T14:01:23.427Z,4.90
2022-12-31T14:04:06.395Z,3.55
2022-12-31T14:06:46.313Z,5.75
2022-12-31T14:09:23.734Z,4.70
2022-12-31T14:12:21.668Z,6.68
2022-12-31T14:15:04.157Z,11.10
2022-12-31T14:17:41.695Z,11.48
2022-12-31T14:20:25.278Z,12.05
2022-12-31T14:23:08.580Z,7.25
2022-12-31T14:25:49.105Z,12.93
2022-12-31T14:28:31.653Z,7.72
2022-12-31T14:31:13.900Z,10.98
2022-12-31T14:33:56.604Z,8.70
2022-12-31T14:36:41.905Z,5.90
2022-12-31T14:39:29.957Z,5.13
2022-12-31T14:42:17.060Z,10.13
2022-12-31T14:45:23.045Z,9.70
2022-12-31T14:48:03.273Z,6.13
2022-12-31T14:50:37.871Z,30.02
2022-12-31T14:53:23.794Z,18.58
2022-12-31T14:56:02.568Z,7.10
2022-12-31T14:58:37.901Z,14.43
2022-12-31T15:01:22.681Z,24.60
2022-12-31T15:03:58.699Z,14.43
2022-12-31T15:06:52.123Z,26.35
2022-12-31T15:09:44.752Z,24.33
2022-12-31T15:12:34.375Z,36.30
2022-12-31T15:15:37.502Z,23.98
2022-12-31T15:18:32.981Z,10.60
2022-12-31T15:21:32.853Z,12.88
2022-12-31T15:24:19.306Z,7.55
2022-12-31T15:26:57.435Z,8.25
2022-12-31T15:29:33.966Z,13.27
2022-12-31T15:32:16.947Z,11.02
2022-12-31T15:35:02.994Z,18.10
2022-12-31T15:37:37.235Z,18.20
2022-12-31T15:40:21.200Z,9.65
2022-12-31T15:42:59.814Z,8.80
2022-12-31T15:45:36.441Z,11.15
2022-12-31T15:48:16.501Z,6.78
2022-12-31T15:50:52.613Z,7.10
2022-12-31T15:53:30.579Z,7.13
2022-12-31T15:56:04.454Z,6.45
2022-12-31T15:58:39.989Z,6.40
2022-12-31T16:01:17.916Z,6.22
2022-12-31T16:03:56.668Z,7.20
2022-12-31T16:06:33.948Z,6.75
2022-12-31T16:09:11.001Z,8.98
2022-12-31T16:11:44.850Z,11.30
2022-12-31T16:14:24.821Z,11.32
2022-12-31T16:17:00.992Z,14.68
2022-12-31T16:19:37.102Z,30.27
2022-12-31T16:22:15.346Z,48.72
2022-12-31T16:25:28.918Z,39.70
2022-12-31T16:27:50.931Z,29.88
2022-12-31T16:30:29.067Z,24.92
2022-12-31T16:33:04.332Z,25.20
2022-12-31T16:35:38.426Z,17.33
2022-12-31T16:38:15.145Z,15.57
2022-12-31T16:41:08.898Z,13.20
2022-12-31T16:43:43.798Z,15.05
2022-12-31T16:46:23.036Z,13.35
2022-12-31T16:48:59.429Z,18.90
2022-12-31T16:51:35.218Z,21.42
2022-12-31T16:54:19.209Z,19.67
2022-12-31T16:56:53.581Z,19.05
2022-12-31T16:59:34.970Z,17.80
2022-12-31T17:02:19.304Z,23.15
2022-12-31T17:04:56.323Z,18.77
2022-12-31T17:07:41.683Z,19.13
2022-12-31T17:10:21.516Z,18.73
2022-12-31T17:13:27.666Z,12.93
2022-12-31T17:15:52.649Z,14.45
2022-12-31T17:18:30.369Z,34.13
2022-12-31T17:21:09.077Z,34.35
2022-12-31T17:23:44.881Z,27.77
2022-12-31T17:26:25.504Z,28.60
2022-12-31T17:29:00.556Z,22.33
2022-12-31T17:31:36.853Z,22.50
2022-12-31T17:34:23.614Z,24.63
2022-12-31T17:37:02.295Z,23.15
2022-12-31T17:39:47.924Z,23.65
2022-12-31T17:42:29.517Z,25.70
2022-12-31T17:45:07.021Z,24.70
2022-12-31T17:47:42.673Z,44.30
2022-12-31T17:50:23.613Z,43.92
2022-12-31T17:53:00.444Z,46.70
2022-12-31T17:55:34.207Z,45.28
2022-12-31T17:58:08.404Z,30.33
2022-12-31T18:00:42.005Z,32.17
2022-12-31T18:03:15.517Z,27.83
2022-12-31T18:05:50.407Z,25.50
2022-12-31T18:08:24.125Z,27.38
2022-12-31T18:10:58.049Z,28.23
2022-12-31T18:13:31.596Z,32.92
2022-12-31T18:16:05.409Z,27.17
2022-12-31T18:18:40.123Z,32.33
2022-12-31T18:21:20.963Z,33.53
2022-12-31T18:26:32.695Z,51.28
2022-12-31T18:29:15.472Z,43.65
2022-12-31T18:31:50.283Z,43.65
2022-12-31T18:34:23.778Z,44.92
2022-12-31T18:37:00.885Z,40.60
2022-12-31T18:39:34.334Z,50.63
2022-12-31T18:42:07.923Z,43.90
2022-12-31T18:44:41.440Z,37.97
2022-12-31T18:47:16.947Z,36.28
2022-12-31T18:49:50.524Z,39.72
2022-12-31T18:52:25.536Z,36.85
2022-12-31T18:54:59.183Z,36.47
2022-12-31T18:57:32.694Z,34.92
2022-12-31T19:00:07.623Z,37.10
2022-12-31T19:02:41.123Z,39.03
2022-12-31T19:05:26.869Z,44.17
2022-12-31T19:08:01.910Z,64.57
2022-12-31T19:10:35.970Z,63.30
2022-12-31T19:13:12.945Z,68.25
2022-12-31T19:15:48.368Z,35.00
2022-12-31T19:18:21.894Z,37.60
2022-12-31T19:20:55.411Z,42.70
2022-12-31T19:23:30.313Z,39.92
2022-12-31T19:26:03.797Z,45.92
2022-12-31T19:28:37.297Z,42.78
2022-12-31T19:31:10.790Z,84.45
2022-12-31T19:33:44.399Z,66.22
2022-12-31T19:36:19.051Z,73.43
2022-12-31T19:38:53.887Z,100.07
2022-12-31T19:41:27.379Z,109.88
2022-12-31T19:44:01.473Z,96.10
2022-12-31T19:46:35.013Z,90.78
2022-12-31T19:49:08.543Z,111.20
2022-12-31T19:51:42.473Z,103.07
2022-12-31T19:54:17.392Z,96.03
2022-12-31T19:56:50.962Z,93.25
2022-12-31T19:59:24.567Z,89.97
2022-12-31T20:01:58.144Z,83.57
2022-12-31T20:04:31.763Z,85.35
2022-12-31T20:07:05.323Z,73.25
2022-12-31T20:09:40.230Z,71.32
2022-12-31T20:12:13.690Z,51.83
2022-12-31T20:14:47.221Z,53.33
2022-12-31T20:17:20.976Z,59.67
2022-12-31T20:19:54.549Z,60.65
2022-12-31T20:22:28.182Z,61.83
2022-12-31T20:25:03.115Z,55.13
2022-12-31T20:27:38.532Z,56.70
2022-12-31T20:30:12.807Z,54.15
2022-12-31T20:32:46.240Z,57.05
2022-12-31T20:35:20.179Z,47.22
2022-12-31T20:37:53.698Z,52.13
2022-12-31T20:40:28.642Z,52.33
2022-12-31T20:43:02.152Z,54.47
2022-12-31T20:45:35.615Z,49.42
2022-12-31T20:48:09.264Z,49.47
2022-12-31T20:50:42.727Z,46.10
2022-12-31T20:53:16.208Z,47.75
2022-12-31T20:55:51.143Z,46.55
2022-12-31T20:58:24.651Z,51.70
2022-12-31T21:00:58.380Z,46.50
2022-12-31T21:06:25.906Z,49.95
2022-12-31T21:09:01.182Z,54.05
2022-12-31T21:11:54.177Z,49.63
2022-12-31T21:17:00.878Z,42.00
2022-12-31T21:19:34.356Z,45.30
2022-12-31T21:22:07.801Z,44.65
2022-12-31T21:24:41.272Z,42.00
2022-12-31T21:27:16.162Z,45.88
2022-12-31T21:30:17.208Z,48.70
2022-12-31T21:32:43.235Z,44.33
2022-12-31T21:35:42.647Z,47.42
2022-12-31T21:38:10.501Z,51.72
2022-12-31T21:40:44.849Z,48.22
2022-12-31T21:43:19.849Z,47.92
2022-12-31T21:46:01.853Z,45.17
2022-12-31T21:48:35.618Z,53.60
2022-12-31T21:51:12.888Z,46.78
2022-12-31T21:53:46.428Z,49.72
2022-12-31T21:56:21.205Z,44.15
2022-12-31T21:59:15.313Z,52.55
2022-12-31T22:02:05.999Z,44.53
2022-12-31T22:07:33.278Z,42.90
2022-12-31T22:10:07.501Z,46.08
2022-12-31T22:12:41.171Z,40.60
2022-12-31T22:15:16.438Z,37.35
2022-12-31T22:17:50.102Z,37.50
2022-12-31T22:20:27.908Z,37.80
2022-12-31T22:23:02.273Z,38.50
2022-12-31T22:25:36.245Z,34.90
2022-12-31T22:28:37.630Z,38.17
2022-12-31T22:31:05.156Z,34.35
2022-12-31T22:33:39.006Z,31.23
2022-12-31T22:36:14.681Z,34.90
2022-12-31T22:38:48.829Z,32.95
2022-12-31T22:41:23.296Z,33.17
2022-12-31T22:44:03.473Z,36.72
2022-12-31T22:46:38.744Z,35.53
2022-12-31T22:49:12.487Z,37.10
2022-12-31T22:51:55.795Z,37.08
2022-12-31T22:54:32.519Z,42.38
2022-12-31T22:57:06.090Z,42.00
2022-12-31T22:59:39.902Z,39.47
2022-12-31T23:02:14.808Z,41.47
2022-12-31T23:04:48.741Z,39.00
2022-12-31T23:07:22.195Z,34.75
2022-12-31T23:10:13.086Z,38.30
2022-12-31T23:12:46.601Z,37.78
2022-12-31T23:15:37.473Z,38.85
2022-12-31T23:18:29.413Z,50.83
2022-12-31T23:21:20.314Z,44.37
2022-12-31T23:23:55.101Z,50.20
2022-12-31T23:26:28.864Z,55.03
2022-12-31T23:29:02.717Z,53.53
2022-12-31T23:31:36.374Z,55.25
2022-12-31T23:34:11.248Z,62.90
2022-12-31T23:36:45.039Z,61.70
2022-12-31T23:39:18.506Z,61.25
2022-12-31T23:41:52.138Z,68.93
2022-12-31T23:44:25.652Z,64.93
2022-12-31T23:46:59.379Z,72.82
2022-12-31T23:49:34.273Z,71.55
2022-12-31T23:52:07.773Z,67.72
2022-12-31T23:54:41.524Z,67.90
2022-12-31T23:57:14.978Z,68.55
2022-12-31T23:59:48.489Z,64.75
